Weather at West Bend Municipal Airport

Public forecast

Using degrees Fahrenheit for public forecast. Weather courtesy of forecast.io.

Current aviation weather report (METAR) for West Bend Municipal Airport

Retrieved 2021/06/12 17:15 UTC (0 seconds ago):

KETB 121715Z AUTO 33006KT 10SM SCT050 29/20 A2988 RMK AO2

Closest aviation forecast (TAF) to West Bend Municipal Airport

Closest forecast is Waukesha County Airport, 23.4 nm (43.3 km) SSW. Retrieved 2021/06/12 12:22 UTC (5 hours ago):

TAF KUES 121120Z 1212/1312 VRB03KT P6SM SCT250 FM121400 33003KT P6SM SCT050 FM121700 33007KT P6SM SCT050 FM130200 32004KT P6SM FEW250